sensor_id;sensor_type;location;lat;lon;timestamp;temperature;humidity
7704;DHT22;3894;49.700;10.770;2023-06-10T00:00:20;17.30;99.90
7704;DHT22;3894;49.700;10.770;2023-06-10T00:02:46;17.20;99.90
7704;DHT22;3894;49.700;10.770;2023-06-10T00:05:11;17.10;99.90
7704;DHT22;3894;49.700;10.770;2023-06-10T00:07:37;17.10;99.90
7704;DHT22;3894;49.700;10.770;2023-06-10T00:10:07;17.10;99.90
7704;DHT22;3894;49.700;10.770;2023-06-10T00:12:33;17.10;99.90
7704;DHT22;3894;49.700;10.770;2023-06-10T00:15:04;17.00;99.90
7704;DHT22;3894;49.700;10.770;2023-06-10T00:17:30;17.00;99.90
7704;DHT22;3894;49.700;10.770;2023-06-10T00:19:56;16.90;99.90
7704;DHT22;3894;49.700;10.770;2023-06-10T00:22:23;16.80;99.90
7704;DHT22;3894;49.700;10.770;2023-06-10T00:24:49;16.80;99.90
7704;DHT22;3894;49.700;10.770;2023-06-10T00:27:16;16.90;99.90
7704;DHT22;3894;49.700;10.770;2023-06-10T00:29:42;16.90;99.90
7704;DHT22;3894;49.700;10.770;2023-06-10T00:32:08;16.80;99.90
7704;DHT22;3894;49.700;10.770;2023-06-10T00:34:33;16.70;99.90
7704;DHT22;3894;49.700;10.770;2023-06-10T00:36:59;16.70;99.90
7704;DHT22;3894;49.700;10.770;2023-06-10T00:39:26;16.60;99.90
7704;DHT22;3894;49.700;10.770;2023-06-10T00:41:51;16.60;99.90
7704;DHT22;3894;49.700;10.770;2023-06-10T00:44:17;16.60;99.90
7704;DHT22;3894;49.700;10.770;2023-06-10T00:46:43;16.60;99.90
7704;DHT22;3894;49.700;10.770;2023-06-10T00:49:09;16.60;99.90
7704;DHT22;3894;49.700;10.770;2023-06-10T00:51:35;16.50;99.90
7704;DHT22;3894;49.700;10.770;2023-06-10T00:54:02;16.40;99.90
7704;DHT22;3894;49.700;10.770;2023-06-10T00:56:28;16.40;99.90
7704;DHT22;3894;49.700;10.770;2023-06-10T00:58:54;16.40;99.90
7704;DHT22;3894;49.700;10.770;2023-06-10T01:01:20;16.30;99.90
7704;DHT22;3894;49.700;10.770;2023-06-10T01:03:46;16.20;99.90
7704;DHT22;3894;49.700;10.770;2023-06-10T01:06:36;16.20;99.90
7704;DHT22;3894;49.700;10.770;2023-06-10T01:12:39;16.30;99.90
7704;DHT22;3894;49.700;10.770;2023-06-10T01:15:06;16.30;99.90
7704;DHT22;3894;49.700;10.770;2023-06-10T01:17:33;16.30;99.90
7704;DHT22;3894;49.700;10.770;2023-06-10T01:19:59;16.20;99.90
7704;DHT22;3894;49.700;10.770;2023-06-10T01:22:28;16.10;99.90
7704;DHT22;3894;49.700;10.770;2023-06-10T01:24:55;16.10;99.90
7704;DHT22;3894;49.700;10.770;2023-06-10T01:27:27;16.10;99.90
7704;DHT22;3894;49.700;10.770;2023-06-10T01:30:14;16.00;99.90
7704;DHT22;3894;49.700;10.770;2023-06-10T01:32:45;16.00;99.90
7704;DHT22;3894;49.700;10.770;2023-06-10T01:35:12;16.00;99.90
7704;DHT22;3894;49.700;10.770;2023-06-10T01:37:39;16.00;99.90
7704;DHT22;3894;49.700;10.770;2023-06-10T01:40:07;16.00;99.90
7704;DHT22;3894;49.700;10.770;2023-06-10T01:42:35;16.00;99.90
7704;DHT22;3894;49.700;10.770;2023-06-10T01:45:01;16.00;99.90
7704;DHT22;3894;49.700;10.770;2023-06-10T01:47:26;16.00;99.90
7704;DHT22;3894;49.700;10.770;2023-06-10T01:49:52;16.00;99.90
7704;DHT22;3894;49.700;10.770;2023-06-10T01:52:18;15.90;99.90
7704;DHT22;3894;49.700;10.770;2023-06-10T01:54:43;15.90;99.90
7704;DHT22;3894;49.700;10.770;2023-06-10T01:57:09;15.80;99.90
7704;DHT22;3894;49.700;10.770;2023-06-10T01:59:35;15.80;99.90
7704;DHT22;3894;49.700;10.770;2023-06-10T02:02:03;15.70;99.90
7704;DHT22;3894;49.700;10.770;2023-06-10T02:04:29;15.70;99.90
7704;DHT22;3894;49.700;10.770;2023-06-10T02:06:54;15.70;99.90
7704;DHT22;3894;49.700;10.770;2023-06-10T02:09:21;15.70;99.90
7704;DHT22;3894;49.700;10.770;2023-06-10T02:11:48;15.60;99.90
7704;DHT22;3894;49.700;10.770;2023-06-10T02:14:14;15.60;99.90
7704;DHT22;3894;49.700;10.770;2023-06-10T02:16:40;15.60;99.90
7704;DHT22;3894;49.700;10.770;2023-06-10T02:19:06;15.60;99.90
7704;DHT22;3894;49.700;10.770;2023-06-10T02:21:32;15.60;99.90
7704;DHT22;3894;49.700;10.770;2023-06-10T02:24:00;15.60;99.90
7704;DHT22;3894;49.700;10.770;2023-06-10T02:26:25;15.50;99.90
7704;DHT22;3894;49.700;10.770;2023-06-10T02:28:51;15.40;99.90
7704;DHT22;3894;49.700;10.770;2023-06-10T02:31:17;15.40;99.90
7704;DHT22;3894;49.700;10.770;2023-06-10T02:33:46;15.30;99.90
7704;DHT22;3894;49.700;10.770;2023-06-10T02:36:12;15.20;99.90
7704;DHT22;3894;49.700;10.770;2023-06-10T02:38:41;15.10;99.90
7704;DHT22;3894;49.700;10.770;2023-06-10T02:41:07;15.20;99.90
7704;DHT22;3894;49.700;10.770;2023-06-10T02:43:34;15.20;99.90
7704;DHT22;3894;49.700;10.770;2023-06-10T02:46:00;15.20;99.90
7704;DHT22;3894;49.700;10.770;2023-06-10T02:48:27;15.20;99.90
7704;DHT22;3894;49.700;10.770;2023-06-10T02:50:53;15.10;99.90
7704;DHT22;3894;49.700;10.770;2023-06-10T02:53:20;15.10;99.90
7704;DHT22;3894;49.700;10.770;2023-06-10T02:55:47;15.10;99.90
7704;DHT22;3894;49.700;10.770;2023-06-10T02:58:14;15.00;99.90
7704;DHT22;3894;49.700;10.770;2023-06-10T03:00:40;15.00;99.90
7704;DHT22;3894;49.700;10.770;2023-06-10T03:03:06;15.00;99.90
7704;DHT22;3894;49.700;10.770;2023-06-10T03:05:32;15.00;99.90
7704;DHT22;3894;49.700;10.770;2023-06-10T03:07:58;15.00;99.90
7704;DHT22;3894;49.700;10.770;2023-06-10T03:10:24;15.00;99.90
7704;DHT22;3894;49.700;10.770;2023-06-10T03:12:49;15.00;99.90
7704;DHT22;3894;49.700;10.770;2023-06-10T03:15:15;15.00;99.90
7704;DHT22;3894;49.700;10.770;2023-06-10T03:17:42;14.90;99.90
7704;DHT22;3894;49.700;10.770;2023-06-10T03:20:08;14.90;99.90
7704;DHT22;3894;49.700;10.770;2023-06-10T03:22:35;14.90;99.90
7704;DHT22;3894;49.700;10.770;2023-06-10T03:25:01;14.80;99.90
7704;DHT22;3894;49.700;10.770;2023-06-10T03:27:27;14.70;99.90
7704;DHT22;3894;49.700;10.770;2023-06-10T03:29:54;14.70;99.90
7704;DHT22;3894;49.700;10.770;2023-06-10T03:32:20;14.60;99.90
7704;DHT22;3894;49.700;10.770;2023-06-10T03:34:46;14.60;99.90
7704;DHT22;3894;49.700;10.770;2023-06-10T03:37:13;14.60;99.90
7704;DHT22;3894;49.700;10.770;2023-06-10T03:39:38;14.60;99.90
7704;DHT22;3894;49.700;10.770;2023-06-10T03:42:04;14.60;99.90
7704;DHT22;3894;49.700;10.770;2023-06-10T03:44:30;14.60;99.90
7704;DHT22;3894;49.700;10.770;2023-06-10T03:46:56;14.70;99.90
7704;DHT22;3894;49.700;10.770;2023-06-10T03:49:22;14.70;99.90
7704;DHT22;3894;49.700;10.770;2023-06-10T03:51:52;14.80;99.90
7704;DHT22;3894;49.700;10.770;2023-06-10T03:54:18;14.80;99.90
7704;DHT22;3894;49.700;10.770;2023-06-10T03:56:43;14.80;99.90
7704;DHT22;3894;49.700;10.770;2023-06-10T03:59:09;14.80;99.90
7704;DHT22;3894;49.700;10.770;2023-06-10T04:01:35;14.80;99.90
7704;DHT22;3894;49.700;10.770;2023-06-10T04:04:03;14.80;99.90
7704;DHT22;3894;49.700;10.770;2023-06-10T04:06:28;14.90;99.90
7704;DHT22;3894;49.700;10.770;2023-06-10T04:08:54;14.90;99.90
7704;DHT22;3894;49.700;10.770;2023-06-10T04:11:23;14.90;99.90
7704;DHT22;3894;49.700;10.770;2023-06-10T04:13:49;14.90;99.90
7704;DHT22;3894;49.700;10.770;2023-06-10T04:16:15;14.90;99.90
7704;DHT22;3894;49.700;10.770;2023-06-10T04:18:41;14.90;99.90
7704;DHT22;3894;49.700;10.770;2023-06-10T04:21:08;14.90;99.90
7704;DHT22;3894;49.700;10.770;2023-06-10T04:23:35;14.90;99.90
7704;DHT22;3894;49.700;10.770;2023-06-10T04:26:02;15.00;99.90
7704;DHT22;3894;49.700;10.770;2023-06-10T04:28:28;15.00;99.90
7704;DHT22;3894;49.700;10.770;2023-06-10T04:30:53;15.00;99.90
7704;DHT22;3894;49.700;10.770;2023-06-10T04:33:19;15.00;99.90
7704;DHT22;3894;49.700;10.770;2023-06-10T04:35:44;15.10;99.90
7704;DHT22;3894;49.700;10.770;2023-06-10T04:38:13;15.20;99.90
7704;DHT22;3894;49.700;10.770;2023-06-10T04:40:39;15.40;99.90
7704;DHT22;3894;49.700;10.770;2023-06-10T04:43:05;15.40;99.90
7704;DHT22;3894;49.700;10.770;2023-06-10T04:45:32;15.50;99.90
7704;DHT22;3894;49.700;10.770;2023-06-10T04:47:58;15.70;99.90
7704;DHT22;3894;49.700;10.770;2023-06-10T04:50:24;15.80;99.90
7704;DHT22;3894;49.700;10.770;2023-06-10T04:52:51;15.80;99.90
7704;DHT22;3894;49.700;10.770;2023-06-10T04:55:16;15.90;99.90
7704;DHT22;3894;49.700;10.770;2023-06-10T04:57:42;16.10;99.90
7704;DHT22;3894;49.700;10.770;2023-06-10T05:00:08;16.30;99.90
7704;DHT22;3894;49.700;10.770;2023-06-10T05:02:34;16.50;99.90
7704;DHT22;3894;49.700;10.770;2023-06-10T05:04:59;17.00;99.90
7704;DHT22;3894;49.700;10.770;2023-06-10T05:07:25;17.30;99.90
7704;DHT22;3894;49.700;10.770;2023-06-10T05:09:51;17.50;99.90
7704;DHT22;3894;49.700;10.770;2023-06-10T05:12:17;17.50;99.90
7704;DHT22;3894;49.700;10.770;2023-06-10T05:14:42;17.50;99.90
7704;DHT22;3894;49.700;10.770;2023-06-10T05:17:10;17.60;99.90
7704;DHT22;3894;49.700;10.770;2023-06-10T05:19:36;17.60;99.90
7704;DHT22;3894;49.700;10.770;2023-06-10T05:22:03;17.70;99.90
7704;DHT22;3894;49.700;10.770;2023-06-10T05:24:30;17.80;99.90
7704;DHT22;3894;49.700;10.770;2023-06-10T05:26:57;18.00;99.90
7704;DHT22;3894;49.700;10.770;2023-06-10T05:29:22;18.10;99.90
7704;DHT22;3894;49.700;10.770;2023-06-10T05:31:48;18.10;99.90
7704;DHT22;3894;49.700;10.770;2023-06-10T05:34:13;18.20;99.90
7704;DHT22;3894;49.700;10.770;2023-06-10T05:36:41;18.30;99.90
7704;DHT22;3894;49.700;10.770;2023-06-10T05:39:07;18.40;99.90
7704;DHT22;3894;49.700;10.770;2023-06-10T05:41:32;18.50;99.90
7704;DHT22;3894;49.700;10.770;2023-06-10T05:43:58;18.60;99.90
7704;DHT22;3894;49.700;10.770;2023-06-10T05:46:23;18.90;99.90
7704;DHT22;3894;49.700;10.770;2023-06-10T05:48:49;19.00;99.90
7704;DHT22;3894;49.700;10.770;2023-06-10T05:51:14;19.20;99.90
7704;DHT22;3894;49.700;10.770;2023-06-10T05:53:40;19.30;99.90
7704;DHT22;3894;49.700;10.770;2023-06-10T05:56:06;19.40;99.90
7704;DHT22;3894;49.700;10.770;2023-06-10T05:58:33;19.50;99.90
7704;DHT22;3894;49.700;10.770;2023-06-10T06:00:59;19.60;99.90
7704;DHT22;3894;49.700;10.770;2023-06-10T06:03:26;19.70;99.90
7704;DHT22;3894;49.700;10.770;2023-06-10T06:05:53;19.90;99.90
7704;DHT22;3894;49.700;10.770;2023-06-10T06:08:18;20.10;99.90
7704;DHT22;3894;49.700;10.770;2023-06-10T06:10:47;20.20;99.90
7704;DHT22;3894;49.700;10.770;2023-06-10T06:13:15;20.40;99.90
7704;DHT22;3894;49.700;10.770;2023-06-10T06:15:41;20.40;99.90
7704;DHT22;3894;49.700;10.770;2023-06-10T06:18:07;20.50;99.90
7704;DHT22;3894;49.700;10.770;2023-06-10T06:20:32;20.60;99.90
7704;DHT22;3894;49.700;10.770;2023-06-10T06:22:58;20.80;99.90
7704;DHT22;3894;49.700;10.770;2023-06-10T06:25:23;20.90;99.90
7704;DHT22;3894;49.700;10.770;2023-06-10T06:27:49;21.00;99.90
7704;DHT22;3894;49.700;10.770;2023-06-10T06:30:14;21.00;99.90
7704;DHT22;3894;49.700;10.770;2023-06-10T06:32:40;21.20;99.90
7704;DHT22;3894;49.700;10.770;2023-06-10T06:35:06;21.30;99.90
7704;DHT22;3894;49.700;10.770;2023-06-10T06:37:34;21.50;99.90
7704;DHT22;3894;49.700;10.770;2023-06-10T06:40:01;21.70;99.90
7704;DHT22;3894;49.700;10.770;2023-06-10T06:42:29;21.80;99.90
7704;DHT22;3894;49.700;10.770;2023-06-10T06:44:54;21.90;99.90
7704;DHT22;3894;49.700;10.770;2023-06-10T06:47:20;22.00;99.90
7704;DHT22;3894;49.700;10.770;2023-06-10T06:49:48;22.00;99.90
7704;DHT22;3894;49.700;10.770;2023-06-10T06:52:15;22.10;99.90
7704;DHT22;3894;49.700;10.770;2023-06-10T06:54:41;22.10;99.90
7704;DHT22;3894;49.700;10.770;2023-06-10T06:57:07;22.20;99.90
7704;DHT22;3894;49.700;10.770;2023-06-10T06:59:33;22.40;99.90
7704;DHT22;3894;49.700;10.770;2023-06-10T07:01:59;22.50;99.90
7704;DHT22;3894;49.700;10.770;2023-06-10T07:04:25;22.60;99.90
7704;DHT22;3894;49.700;10.770;2023-06-10T07:06:51;22.60;99.90
7704;DHT22;3894;49.700;10.770;2023-06-10T07:09:16;22.80;99.90
7704;DHT22;3894;49.700;10.770;2023-06-10T07:11:42;22.90;99.90
7704;DHT22;3894;49.700;10.770;2023-06-10T07:14:08;23.00;99.90
7704;DHT22;3894;49.700;10.770;2023-06-10T07:16:35;23.00;99.90
7704;DHT22;3894;49.700;10.770;2023-06-10T07:19:01;23.10;99.90
7704;DHT22;3894;49.700;10.770;2023-06-10T07:21:27;23.00;99.90
7704;DHT22;3894;49.700;10.770;2023-06-10T07:23:53;23.00;99.90
7704;DHT22;3894;49.700;10.770;2023-06-10T07:26:21;23.10;99.90
7704;DHT22;3894;49.700;10.770;2023-06-10T07:28:47;23.30;99.90
7704;DHT22;3894;49.700;10.770;2023-06-10T07:31:12;23.60;99.90
7704;DHT22;3894;49.700;10.770;2023-06-10T07:33:38;23.70;99.90
7704;DHT22;3894;49.700;10.770;2023-06-10T07:36:05;23.70;99.90
7704;DHT22;3894;49.700;10.770;2023-06-10T07:38:31;23.80;99.90
7704;DHT22;3894;49.700;10.770;2023-06-10T07:40:57;23.90;99.90
7704;DHT22;3894;49.700;10.770;2023-06-10T07:43:23;24.10;99.90
7704;DHT22;3894;49.700;10.770;2023-06-10T07:45:49;24.10;99.90
7704;DHT22;3894;49.700;10.770;2023-06-10T07:48:14;24.20;99.90
7704;DHT22;3894;49.700;10.770;2023-06-10T07:50:40;24.30;99.90
7704;DHT22;3894;49.700;10.770;2023-06-10T07:53:07;24.40;99.90
7704;DHT22;3894;49.700;10.770;2023-06-10T07:55:32;24.40;99.90
7704;DHT22;3894;49.700;10.770;2023-06-10T07:57:58;24.40;99.90
7704;DHT22;3894;49.700;10.770;2023-06-10T08:00:23;24.40;99.90
7704;DHT22;3894;49.700;10.770;2023-06-10T08:02:49;24.50;99.90
7704;DHT22;3894;49.700;10.770;2023-06-10T08:05:17;24.60;99.90
7704;DHT22;3894;49.700;10.770;2023-06-10T08:07:42;24.70;99.90
7704;DHT22;3894;49.700;10.770;2023-06-10T08:10:09;24.80;99.90
7704;DHT22;3894;49.700;10.770;2023-06-10T08:12:35;24.80;99.90
7704;DHT22;3894;49.700;10.770;2023-06-10T08:15:04;24.90;99.90
7704;DHT22;3894;49.700;10.770;2023-06-10T08:17:30;24.90;99.90
7704;DHT22;3894;49.700;10.770;2023-06-10T08:19:55;25.10;99.90
7704;DHT22;3894;49.700;10.770;2023-06-10T08:22:21;25.10;99.90
7704;DHT22;3894;49.700;10.770;2023-06-10T08:24:48;25.20;99.90
7704;DHT22;3894;49.700;10.770;2023-06-10T08:27:14;25.20;99.90
7704;DHT22;3894;49.700;10.770;2023-06-10T08:29:39;25.20;99.90
7704;DHT22;3894;49.700;10.770;2023-06-10T08:32:05;25.40;99.90
7704;DHT22;3894;49.700;10.770;2023-06-10T08:34:35;25.50;99.90
7704;DHT22;3894;49.700;10.770;2023-06-10T08:37:01;25.70;99.90
7704;DHT22;3894;49.700;10.770;2023-06-10T08:39:28;25.70;99.90
7704;DHT22;3894;49.700;10.770;2023-06-10T08:42:00;25.80;99.90
7704;DHT22;3894;49.700;10.770;2023-06-10T08:44:30;25.90;99.90
7704;DHT22;3894;49.700;10.770;2023-06-10T08:46:59;25.90;99.90
7704;DHT22;3894;49.700;10.770;2023-06-10T08:49:30;26.00;99.90
7704;DHT22;3894;49.700;10.770;2023-06-10T08:51:59;26.10;99.90
7704;DHT22;3894;49.700;10.770;2023-06-10T08:54:31;26.10;99.90
7704;DHT22;3894;49.700;10.770;2023-06-10T08:56:59;26.10;99.90
7704;DHT22;3894;49.700;10.770;2023-06-10T08:59:25;26.20;99.90
7704;DHT22;3894;49.700;10.770;2023-06-10T09:01:52;26.30;99.90
7704;DHT22;3894;49.700;10.770;2023-06-10T09:04:19;26.40;99.90
7704;DHT22;3894;49.700;10.770;2023-06-10T09:06:45;26.40;99.80
7704;DHT22;3894;49.700;10.770;2023-06-10T09:09:12;26.40;99.10
7704;DHT22;3894;49.700;10.770;2023-06-10T09:11:38;26.40;99.20
7704;DHT22;3894;49.700;10.770;2023-06-10T09:14:03;26.50;98.90
7704;DHT22;3894;49.700;10.770;2023-06-10T09:16:30;26.50;98.90
7704;DHT22;3894;49.700;10.770;2023-06-10T09:18:56;26.60;99.40
7704;DHT22;3894;49.700;10.770;2023-06-10T09:21:23;26.80;98.60
7704;DHT22;3894;49.700;10.770;2023-06-10T09:23:48;26.70;98.70
7704;DHT22;3894;49.700;10.770;2023-06-10T09:26:14;26.80;98.30
7704;DHT22;3894;49.700;10.770;2023-06-10T09:28:43;26.90;98.30
7704;DHT22;3894;49.700;10.770;2023-06-10T09:31:09;26.90;97.80
7704;DHT22;3894;49.700;10.770;2023-06-10T09:33:38;27.00;97.80
7704;DHT22;3894;49.700;10.770;2023-06-10T09:36:09;27.00;97.40
7704;DHT22;3894;49.700;10.770;2023-06-10T09:38:35;27.10;97.10
7704;DHT22;3894;49.700;10.770;2023-06-10T09:41:03;27.10;96.80
7704;DHT22;3894;49.700;10.770;2023-06-10T09:46:17;27.20;97.00
7704;DHT22;3894;49.700;10.770;2023-06-10T09:48:44;27.30;97.00
7704;DHT22;3894;49.700;10.770;2023-06-10T09:51:12;27.40;96.70
7704;DHT22;3894;49.700;10.770;2023-06-10T09:53:38;27.60;96.90
7704;DHT22;3894;49.700;10.770;2023-06-10T09:56:05;27.60;96.60
7704;DHT22;3894;49.700;10.770;2023-06-10T09:58:38;27.70;96.10
7704;DHT22;3894;49.700;10.770;2023-06-10T10:01:12;27.70;96.00
7704;DHT22;3894;49.700;10.770;2023-06-10T10:03:50;27.80;95.90
7704;DHT22;3894;49.700;10.770;2023-06-10T10:06:17;27.80;95.40
7704;DHT22;3894;49.700;10.770;2023-06-10T10:08:43;28.10;95.80
7704;DHT22;3894;49.700;10.770;2023-06-10T10:11:09;28.20;95.30
7704;DHT22;3894;49.700;10.770;2023-06-10T10:13:35;28.30;95.20
7704;DHT22;3894;49.700;10.770;2023-06-10T10:16:12;28.30;94.80
7704;DHT22;3894;49.700;10.770;2023-06-10T10:18:43;28.30;95.00
7704;DHT22;3894;49.700;10.770;2023-06-10T10:21:15;28.30;94.60
7704;DHT22;3894;49.700;10.770;2023-06-10T10:24:03;28.40;94.50
7704;DHT22;3894;49.700;10.770;2023-06-10T10:26:31;28.20;94.70
7704;DHT22;3894;49.700;10.770;2023-06-10T10:29:14;27.90;94.70
7704;DHT22;3894;49.700;10.770;2023-06-10T10:31:43;27.50;94.80
7704;DHT22;3894;49.700;10.770;2023-06-10T10:34:37;27.20;95.20
7704;DHT22;3894;49.700;10.770;2023-06-10T10:37:06;27.20;95.30
7704;DHT22;3894;49.700;10.770;2023-06-10T10:39:34;26.90;95.20
7704;DHT22;3894;49.700;10.770;2023-06-10T10:42:00;26.60;95.10
7704;DHT22;3894;49.700;10.770;2023-06-10T10:44:26;26.70;95.80
7704;DHT22;3894;49.700;10.770;2023-06-10T10:46:52;27.30;95.70
7704;DHT22;3894;49.700;10.770;2023-06-10T10:49:20;27.50;94.70
7704;DHT22;3894;49.700;10.770;2023-06-10T10:54:33;27.90;94.40
7704;DHT22;3894;49.700;10.770;2023-06-10T10:57:19;27.70;94.40
7704;DHT22;3894;49.700;10.770;2023-06-10T10:59:53;27.60;94.50
7704;DHT22;3894;49.700;10.770;2023-06-10T11:02:43;28.20;94.60
7704;DHT22;3894;49.700;10.770;2023-06-10T11:05:14;28.70;94.00
7704;DHT22;3894;49.700;10.770;2023-06-10T11:07:40;28.10;93.80
7704;DHT22;3894;49.700;10.770;2023-06-10T11:10:16;27.60;94.10
7704;DHT22;3894;49.700;10.770;2023-06-10T11:15:11;28.30;94.80
7704;DHT22;3894;49.700;10.770;2023-06-10T11:17:37;28.30;93.90
7704;DHT22;3894;49.700;10.770;2023-06-10T11:20:03;27.80;93.80
7704;DHT22;3894;49.700;10.770;2023-06-10T11:22:31;27.40;94.20
7704;DHT22;3894;49.700;10.770;2023-06-10T11:24:56;27.20;94.10
7704;DHT22;3894;49.700;10.770;2023-06-10T11:27:24;27.10;94.60
7704;DHT22;3894;49.700;10.770;2023-06-10T11:32:30;28.30;94.90
7704;DHT22;3894;49.700;10.770;2023-06-10T11:34:57;28.80;94.40
7704;DHT22;3894;49.700;10.770;2023-06-10T11:37:22;29.20;94.90
7704;DHT22;3894;49.700;10.770;2023-06-10T11:39:53;29.00;93.10
7704;DHT22;3894;49.700;10.770;2023-06-10T11:42:19;28.40;93.20
7704;DHT22;3894;49.700;10.770;2023-06-10T11:44:52;28.20;93.70
7704;DHT22;3894;49.700;10.770;2023-06-10T11:47:19;27.90;93.60
7704;DHT22;3894;49.700;10.770;2023-06-10T11:49:46;27.70;94.10
7704;DHT22;3894;49.700;10.770;2023-06-10T11:52:13;28.00;94.20
7704;DHT22;3894;49.700;10.770;2023-06-10T11:54:39;28.30;94.10
7704;DHT22;3894;49.700;10.770;2023-06-10T11:57:04;28.20;93.30
7704;DHT22;3894;49.700;10.770;2023-06-10T11:59:31;27.90;93.60
7704;DHT22;3894;49.700;10.770;2023-06-10T12:01:56;27.90;93.70
7704;DHT22;3894;49.700;10.770;2023-06-10T12:04:22;28.00;93.20
7704;DHT22;3894;49.700;10.770;2023-06-10T12:06:52;28.20;93.60
7704;DHT22;3894;49.700;10.770;2023-06-10T12:09:22;28.70;92.70
7704;DHT22;3894;49.700;10.770;2023-06-10T12:12:06;29.00;92.50
7704;DHT22;3894;49.700;10.770;2023-06-10T12:14:55;29.30;92.20
7704;DHT22;3894;49.700;10.770;2023-06-10T12:19:57;29.50;91.50
7704;DHT22;3894;49.700;10.770;2023-06-10T12:22:23;29.10;91.40
7704;DHT22;3894;49.700;10.770;2023-06-10T12:25:03;28.80;91.80
7704;DHT22;3894;49.700;10.770;2023-06-10T12:27:30;28.50;92.10
7704;DHT22;3894;49.700;10.770;2023-06-10T12:29:57;28.80;92.40
7704;DHT22;3894;49.700;10.770;2023-06-10T12:32:55;29.20;92.10
7704;DHT22;3894;49.700;10.770;2023-06-10T12:35:24;29.50;92.00
7704;DHT22;3894;49.700;10.770;2023-06-10T12:38:03;29.60;92.00
7704;DHT22;3894;49.700;10.770;2023-06-10T12:40:34;29.70;91.40
7704;DHT22;3894;49.700;10.770;2023-06-10T12:43:01;29.80;91.60
7704;DHT22;3894;49.700;10.770;2023-06-10T12:45:35;30.00;91.30
7704;DHT22;3894;49.700;10.770;2023-06-10T12:50:39;30.10;90.60
7704;DHT22;3894;49.700;10.770;2023-06-10T12:53:06;29.90;91.10
7704;DHT22;3894;49.700;10.770;2023-06-10T12:55:32;30.00;90.60
7704;DHT22;3894;49.700;10.770;2023-06-10T12:57:59;29.50;90.30
7704;DHT22;3894;49.700;10.770;2023-06-10T13:00:25;29.10;90.50
7704;DHT22;3894;49.700;10.770;2023-06-10T13:02:54;28.80;90.80
7704;DHT22;3894;49.700;10.770;2023-06-10T13:05:20;28.60;90.80
7704;DHT22;3894;49.700;10.770;2023-06-10T13:07:46;28.40;91.00
7704;DHT22;3894;49.700;10.770;2023-06-10T13:10:14;28.30;91.40
7704;DHT22;3894;49.700;10.770;2023-06-10T13:12:39;28.40;91.30
7704;DHT22;3894;49.700;10.770;2023-06-10T13:15:06;28.40;90.90
7704;DHT22;3894;49.700;10.770;2023-06-10T13:17:32;28.30;91.10
7704;DHT22;3894;49.700;10.770;2023-06-10T13:19:59;28.10;91.20
7704;DHT22;3894;49.700;10.770;2023-06-10T13:22:25;27.90;91.40
7704;DHT22;3894;49.700;10.770;2023-06-10T13:24:52;27.80;91.40
7704;DHT22;3894;49.700;10.770;2023-06-10T13:27:17;28.00;91.40
7704;DHT22;3894;49.700;10.770;2023-06-10T13:29:43;28.10;91.40
7704;DHT22;3894;49.700;10.770;2023-06-10T13:32:08;28.00;91.50
7704;DHT22;3894;49.700;10.770;2023-06-10T13:34:35;28.20;92.10
7704;DHT22;3894;49.700;10.770;2023-06-10T13:37:02;28.60;91.20
7704;DHT22;3894;49.700;10.770;2023-06-10T13:39:29;28.70;91.00
7704;DHT22;3894;49.700;10.770;2023-06-10T13:41:54;28.40;91.10
7704;DHT22;3894;49.700;10.770;2023-06-10T13:44:20;28.20;91.10
7704;DHT22;3894;49.700;10.770;2023-06-10T13:46:46;28.10;91.50
7704;DHT22;3894;49.700;10.770;2023-06-10T13:49:11;27.90;91.70
7704;DHT22;3894;49.700;10.770;2023-06-10T13:51:37;27.70;91.70
7704;DHT22;3894;49.700;10.770;2023-06-10T13:54:02;27.80;92.10
7704;DHT22;3894;49.700;10.770;2023-06-10T13:56:28;28.20;91.60
7704;DHT22;3894;49.700;10.770;2023-06-10T13:58:53;28.50;91.40
7704;DHT22;3894;49.700;10.770;2023-06-10T14:01:19;28.80;91.50
7704;DHT22;3894;49.700;10.770;2023-06-10T14:03:44;29.00;91.20
7704;DHT22;3894;49.700;10.770;2023-06-10T14:06:10;29.20;90.90
7704;DHT22;3894;49.700;10.770;2023-06-10T14:08:38;29.30;91.00
7704;DHT22;3894;49.700;10.770;2023-06-10T14:11:04;29.40;90.80
7704;DHT22;3894;49.700;10.770;2023-06-10T14:13:29;29.10;89.80
7704;DHT22;3894;49.700;10.770;2023-06-10T14:15:55;28.70;90.30
7704;DHT22;3894;49.700;10.770;2023-06-10T14:18:20;28.40;89.60
7704;DHT22;3894;49.700;10.770;2023-06-10T14:20:46;28.40;89.60
7704;DHT22;3894;49.700;10.770;2023-06-10T14:23:11;28.40;88.50
7704;DHT22;3894;49.700;10.770;2023-06-10T14:25:37;28.30;87.90
7704;DHT22;3894;49.700;10.770;2023-06-10T14:28:03;28.10;87.40
7704;DHT22;3894;49.700;10.770;2023-06-10T14:30:28;28.10;88.50
7704;DHT22;3894;49.700;10.770;2023-06-10T14:32:54;28.10;88.60
7704;DHT22;3894;49.700;10.770;2023-06-10T14:35:19;27.90;90.20
7704;DHT22;3894;49.700;10.770;2023-06-10T14:37:46;27.80;91.40
7704;DHT22;3894;49.700;10.770;2023-06-10T14:40:12;27.50;91.90
7704;DHT22;3894;49.700;10.770;2023-06-10T14:42:37;27.40;92.10
7704;DHT22;3894;49.700;10.770;2023-06-10T14:45:04;27.40;92.70
7704;DHT22;3894;49.700;10.770;2023-06-10T14:47:30;27.30;93.10
7704;DHT22;3894;49.700;10.770;2023-06-10T14:49:56;27.30;93.00
7704;DHT22;3894;49.700;10.770;2023-06-10T14:52:21;27.10;93.30
7704;DHT22;3894;49.700;10.770;2023-06-10T14:54:47;27.10;93.20
7704;DHT22;3894;49.700;10.770;2023-06-10T14:57:13;26.90;94.10
7704;DHT22;3894;49.700;10.770;2023-06-10T14:59:38;26.70;98.30
7704;DHT22;3894;49.700;10.770;2023-06-10T15:02:04;26.30;99.90
7704;DHT22;3894;49.700;10.770;2023-06-10T15:04:29;25.80;99.90
7704;DHT22;3894;49.700;10.770;2023-06-10T15:06:55;25.50;99.90
7704;DHT22;3894;49.700;10.770;2023-06-10T15:09:21;25.30;99.90
7704;DHT22;3894;49.700;10.770;2023-06-10T15:11:46;25.00;99.90
7704;DHT22;3894;49.700;10.770;2023-06-10T15:14:12;24.80;99.90
7704;DHT22;3894;49.700;10.770;2023-06-10T15:16:37;24.60;99.90
7704;DHT22;3894;49.700;10.770;2023-06-10T15:19:03;24.50;99.90
7704;DHT22;3894;49.700;10.770;2023-06-10T15:21:29;24.50;99.90
7704;DHT22;3894;49.700;10.770;2023-06-10T15:23:54;24.50;99.90
7704;DHT22;3894;49.700;10.770;2023-06-10T15:26:20;24.60;99.90
7704;DHT22;3894;49.700;10.770;2023-06-10T15:28:46;24.70;99.90
7704;DHT22;3894;49.700;10.770;2023-06-10T15:31:11;24.70;99.90
7704;DHT22;3894;49.700;10.770;2023-06-10T15:33:37;24.70;99.90
7704;DHT22;3894;49.700;10.770;2023-06-10T15:36:03;24.70;99.90
7704;DHT22;3894;49.700;10.770;2023-06-10T15:38:30;24.70;99.90
7704;DHT22;3894;49.700;10.770;2023-06-10T15:40:55;24.70;99.90
7704;DHT22;3894;49.700;10.770;2023-06-10T15:43:21;24.80;99.90
7704;DHT22;3894;49.700;10.770;2023-06-10T15:45:46;24.70;99.90
7704;DHT22;3894;49.700;10.770;2023-06-10T15:48:12;24.60;99.90
7704;DHT22;3894;49.700;10.770;2023-06-10T15:50:37;24.80;99.90
7704;DHT22;3894;49.700;10.770;2023-06-10T15:53:03;24.70;99.90
7704;DHT22;3894;49.700;10.770;2023-06-10T15:55:28;24.70;99.90
7704;DHT22;3894;49.700;10.770;2023-06-10T15:57:55;24.80;99.90
7704;DHT22;3894;49.700;10.770;2023-06-10T16:00:22;25.00;99.90
7704;DHT22;3894;49.700;10.770;2023-06-10T16:02:48;25.10;99.90